sensor_id;sensor_type;location;lat;lon;timestamp;pressure;altitude;pressure_sealevel;temperature;humidity
75317;BME280;63913;51.492;10.368;2023-03-01T00:01:13;99758.13;;;-2.96;69.81
75317;BME280;63913;51.492;10.368;2023-03-01T00:03:38;99756.34;;;-2.97;69.75
75317;BME280;63913;51.492;10.368;2023-03-01T00:06:05;99748.25;;;-3.03;69.92
75317;BME280;63913;51.492;10.368;2023-03-01T00:08:31;99750.34;;;-3.08;69.95
75317;BME280;63913;51.492;10.368;2023-03-01T00:11:12;99754.75;;;-3.14;70.75
75317;BME280;63913;51.492;10.368;2023-03-01T00:13:38;99743.94;;;-3.04;70.28
75317;BME280;63913;51.492;10.368;2023-03-01T00:16:04;99746.75;;;-3.01;69.97
75317;BME280;63913;51.492;10.368;2023-03-01T00:18:30;99748.72;;;-3.16;70.36
75317;BME280;63913;51.492;10.368;2023-03-01T00:20:55;99749.28;;;-3.10;70.04
75317;BME280;63913;51.492;10.368;2023-03-01T00:23:22;99748.56;;;-3.09;70.11
75317;BME280;63913;51.492;10.368;2023-03-01T00:25:49;99753.28;;;-3.21;70.34
75317;BME280;63913;51.492;10.368;2023-03-01T00:28:15;99751.09;;;-3.18;70.79
75317;BME280;63913;51.492;10.368;2023-03-01T00:30:41;99742.81;;;-3.17;70.37
75317;BME280;63913;51.492;10.368;2023-03-01T00:33:07;99747.06;;;-3.16;70.19
75317;BME280;63913;51.492;10.368;2023-03-01T00:35:33;99753.28;;;-3.21;70.83
75317;BME280;63913;51.492;10.368;2023-03-01T00:37:58;99747.38;;;-3.21;70.61
75317;BME280;63913;51.492;10.368;2023-03-01T00:40:25;99749.16;;;-3.20;70.29
75317;BME280;63913;51.492;10.368;2023-03-01T00:42:50;99748.41;;;-3.19;70.09
75317;BME280;63913;51.492;10.368;2023-03-01T00:45:16;99740.16;;;-3.27;69.83
75317;BME280;63913;51.492;10.368;2023-03-01T00:47:42;99750.94;;;-3.28;70.91
75317;BME280;63913;51.492;10.368;2023-03-01T00:50:08;99739.84;;;-3.38;70.51
75317;BME280;63913;51.492;10.368;2023-03-01T00:52:34;99747.53;;;-3.37;70.56
75317;BME280;63913;51.492;10.368;2023-03-01T00:54:59;99744.28;;;-3.36;70.50
75317;BME280;63913;51.492;10.368;2023-03-01T00:57:24;99743.09;;;-3.31;70.59
75317;BME280;63913;51.492;10.368;2023-03-01T00:59:50;99741.63;;;-3.29;70.26
75317;BME280;63913;51.492;10.368;2023-03-01T01:02:18;99735.44;;;-3.32;70.00
75317;BME280;63913;51.492;10.368;2023-03-01T01:04:43;99729.78;;;-3.30;70.53
75317;BME280;63913;51.492;10.368;2023-03-01T01:07:09;99731.13;;;-3.25;70.34
75317;BME280;63913;51.492;10.368;2023-03-01T01:09:34;99726.22;;;-3.23;69.84
75317;BME280;63913;51.492;10.368;2023-03-01T01:12:00;99728.88;;;-3.22;70.40
75317;BME280;63913;51.492;10.368;2023-03-01T01:14:25;99725.22;;;-3.25;70.42
75317;BME280;63913;51.492;10.368;2023-03-01T01:16:50;99721.19;;;-3.32;70.55
75317;BME280;63913;51.492;10.368;2023-03-01T01:19:16;99719.00;;;-3.29;70.20
75317;BME280;63913;51.492;10.368;2023-03-01T01:21:41;99711.75;;;-3.34;70.46
75317;BME280;63913;51.492;10.368;2023-03-01T01:24:10;99708.78;;;-3.39;70.19
75317;BME280;63913;51.492;10.368;2023-03-01T01:26:36;99716.22;;;-3.40;71.11
75317;BME280;63913;51.492;10.368;2023-03-01T01:29:04;99713.97;;;-3.37;69.85
75317;BME280;63913;51.492;10.368;2023-03-01T01:31:31;99706.59;;;-3.44;70.67
75317;BME280;63913;51.492;10.368;2023-03-01T01:33:57;99699.63;;;-3.47;71.16
75317;BME280;63913;51.492;10.368;2023-03-01T01:36:24;99698.31;;;-3.43;70.29
75317;BME280;63913;51.492;10.368;2023-03-01T01:38:49;99702.47;;;-3.53;71.06
75317;BME280;63913;51.492;10.368;2023-03-01T01:41:15;99699.38;;;-3.50;70.72
75317;BME280;63913;51.492;10.368;2023-03-01T01:43:44;99698.31;;;-3.52;71.14
75317;BME280;63913;51.492;10.368;2023-03-01T01:46:23;99694.50;;;-3.49;71.03
75317;BME280;63913;51.492;10.368;2023-03-01T01:48:58;99695.50;;;-3.47;71.11
75317;BME280;63913;51.492;10.368;2023-03-01T01:51:31;99695.22;;;-3.41;70.81
75317;BME280;63913;51.492;10.368;2023-03-01T01:54:07;99697.84;;;-3.39;70.11
75317;BME280;63913;51.492;10.368;2023-03-01T01:56:36;99690.31;;;-3.48;70.49
75317;BME280;63913;51.492;10.368;2023-03-01T01:59:03;99688.41;;;-3.51;70.76
75317;BME280;63913;51.492;10.368;2023-03-01T02:01:29;99684.56;;;-3.47;70.18
75317;BME280;63913;51.492;10.368;2023-03-01T02:03:54;99686.81;;;-3.59;70.67
75317;BME280;63913;51.492;10.368;2023-03-01T02:06:29;99687.69;;;-3.58;71.15
75317;BME280;63913;51.492;10.368;2023-03-01T02:09:03;99681.63;;;-3.60;71.22
75317;BME280;63913;51.492;10.368;2023-03-01T02:11:31;99685.03;;;-3.51;70.98
75317;BME280;63913;51.492;10.368;2023-03-01T02:13:57;99679.41;;;-3.49;70.70
75317;BME280;63913;51.492;10.368;2023-03-01T02:16:23;99678.38;;;-3.59;70.87
75317;BME280;63913;51.492;10.368;2023-03-01T02:18:51;99673.94;;;-3.53;70.83
75317;BME280;63913;51.492;10.368;2023-03-01T02:24:02;99653.56;;;-3.65;70.25
75317;BME280;63913;51.492;10.368;2023-03-01T02:26:37;99651.31;;;-3.70;70.54
75317;BME280;63913;51.492;10.368;2023-03-01T02:29:05;99654.88;;;-3.68;70.33
75317;BME280;63913;51.492;10.368;2023-03-01T02:31:31;99639.22;;;-3.66;70.41
75317;BME280;63913;51.492;10.368;2023-03-01T02:34:13;99640.09;;;-3.65;70.73
75317;BME280;63913;51.492;10.368;2023-03-01T02:36:47;99644.50;;;-3.63;70.07
75317;BME280;63913;51.492;10.368;2023-03-01T02:39:23;99638.50;;;-3.73;71.09
75317;BME280;63913;51.492;10.368;2023-03-01T02:41:52;99643.78;;;-3.79;71.69
75317;BME280;63913;51.492;10.368;2023-03-01T02:44:20;99646.63;;;-3.76;71.25
75317;BME280;63913;51.492;10.368;2023-03-01T02:46:49;99637.44;;;-3.75;71.30
75317;BME280;63913;51.492;10.368;2023-03-01T02:54:22;99656.81;;;-3.66;71.35
75317;BME280;63913;51.492;10.368;2023-03-01T02:56:50;99656.19;;;-3.63;71.30
75317;BME280;63913;51.492;10.368;2023-03-01T02:59:21;99654.00;;;-3.69;71.09
75317;BME280;63913;51.492;10.368;2023-03-01T03:01:47;99652.06;;;-3.71;71.37
75317;BME280;63913;51.492;10.368;2023-03-01T03:04:16;99645.56;;;-3.69;71.41
75317;BME280;63913;51.492;10.368;2023-03-01T03:06:52;99642.63;;;-3.65;71.29
75317;BME280;63913;51.492;10.368;2023-03-01T03:09:17;99648.81;;;-3.70;71.88
75317;BME280;63913;51.492;10.368;2023-03-01T03:11:44;99640.84;;;-3.66;71.86
75317;BME280;63913;51.492;10.368;2023-03-01T03:14:13;99636.97;;;-3.63;71.86
75317;BME280;63913;51.492;10.368;2023-03-01T03:16:47;99631.94;;;-3.63;71.88
75317;BME280;63913;51.492;10.368;2023-03-01T03:19:13;99631.06;;;-3.72;71.80
75317;BME280;63913;51.492;10.368;2023-03-01T03:21:39;99630.19;;;-3.72;71.61
75317;BME280;63913;51.492;10.368;2023-03-01T03:24:05;99630.78;;;-3.66;71.95
75317;BME280;63913;51.492;10.368;2023-03-01T03:26:30;99624.88;;;-3.67;71.21
75317;BME280;63913;51.492;10.368;2023-03-01T03:28:56;99624.44;;;-3.71;71.73
75317;BME280;63913;51.492;10.368;2023-03-01T03:31:22;99623.53;;;-3.72;71.72
75317;BME280;63913;51.492;10.368;2023-03-01T03:33:47;99621.91;;;-3.71;70.99
75317;BME280;63913;51.492;10.368;2023-03-01T03:36:17;99624.75;;;-3.77;71.38
75317;BME280;63913;51.492;10.368;2023-03-01T03:38:44;99626.94;;;-3.80;71.79
75317;BME280;63913;51.492;10.368;2023-03-01T03:41:11;99623.84;;;-3.77;71.78
75317;BME280;63913;51.492;10.368;2023-03-01T03:43:39;99620.91;;;-3.73;71.77
75317;BME280;63913;51.492;10.368;2023-03-01T03:46:05;99628.44;;;-3.73;72.00
75317;BME280;63913;51.492;10.368;2023-03-01T03:48:33;99625.47;;;-3.69;72.03
75317;BME280;63913;51.492;10.368;2023-03-01T03:50:58;99623.13;;;-3.76;71.78
75317;BME280;63913;51.492;10.368;2023-03-01T03:53:25;99628.44;;;-3.73;71.84
75317;BME280;63913;51.492;10.368;2023-03-01T03:55:51;99625.78;;;-3.75;71.82
75317;BME280;63913;51.492;10.368;2023-03-01T03:58:18;99626.94;;;-3.71;71.86
75317;BME280;63913;51.492;10.368;2023-03-01T04:00:46;99622.97;;;-3.78;72.04
75317;BME280;63913;51.492;10.368;2023-03-01T04:03:13;99618.41;;;-3.73;71.97
75317;BME280;63913;51.492;10.368;2023-03-01T04:05:39;99618.81;;;-3.77;72.24
75317;BME280;63913;51.492;10.368;2023-03-01T04:08:06;99624.44;;;-3.80;72.40
75317;BME280;63913;51.492;10.368;2023-03-01T04:10:37;99620.75;;;-3.83;72.24
75317;BME280;63913;51.492;10.368;2023-03-01T04:13:07;99624.00;;;-3.76;72.20
75317;BME280;63913;51.492;10.368;2023-03-01T04:15:34;99632.44;;;-3.75;71.72
75317;BME280;63913;51.492;10.368;2023-03-01T04:18:00;99619.56;;;-3.78;71.76
75317;BME280;63913;51.492;10.368;2023-03-01T04:20:28;99627.25;;;-3.86;71.69
75317;BME280;63913;51.492;10.368;2023-03-01T04:23:04;99624.44;;;-3.89;72.37
75317;BME280;63913;51.492;10.368;2023-03-01T04:25:40;99627.72;;;-3.90;71.91
75317;BME280;63913;51.492;10.368;2023-03-01T04:28:06;99622.25;;;-3.94;72.55
75317;BME280;63913;51.492;10.368;2023-03-01T04:30:32;99616.91;;;-3.89;72.10
75317;BME280;63913;51.492;10.368;2023-03-01T04:33:04;99622.69;;;-3.90;71.88
75317;BME280;63913;51.492;10.368;2023-03-01T04:35:31;99619.88;;;-3.93;71.97
75317;BME280;63913;51.492;10.368;2023-03-01T04:37:56;99623.72;;;-3.88;71.85
75317;BME280;63913;51.492;10.368;2023-03-01T04:40:22;99617.94;;;-3.95;71.70
75317;BME280;63913;51.492;10.368;2023-03-01T04:42:47;99607.00;;;-3.96;72.06
75317;BME280;63913;51.492;10.368;2023-03-01T04:45:12;99612.34;;;-3.93;72.22
75317;BME280;63913;51.492;10.368;2023-03-01T04:47:42;99604.81;;;-3.93;71.94
75317;BME280;63913;51.492;10.368;2023-03-01T04:50:09;99612.03;;;-3.96;72.06
75317;BME280;63913;51.492;10.368;2023-03-01T04:52:35;99614.69;;;-4.03;72.18
75317;BME280;63913;51.492;10.368;2023-03-01T04:55:01;99611.16;;;-4.05;72.14
75317;BME280;63913;51.492;10.368;2023-03-01T04:57:28;99605.13;;;-4.07;72.12
75317;BME280;63913;51.492;10.368;2023-03-01T04:59:54;99608.53;;;-4.06;72.29
75317;BME280;63913;51.492;10.368;2023-03-01T05:02:19;99610.16;;;-4.07;72.27
75317;BME280;63913;51.492;10.368;2023-03-01T05:04:44;99604.97;;;-4.08;72.45
75317;BME280;63913;51.492;10.368;2023-03-01T05:07:10;99611.03;;;-4.06;72.46
75317;BME280;63913;51.492;10.368;2023-03-01T05:09:38;99608.53;;;-4.06;72.55
75317;BME280;63913;51.492;10.368;2023-03-01T05:12:04;99606.59;;;-4.09;72.15
75317;BME280;63913;51.492;10.368;2023-03-01T05:14:29;99607.63;;;-4.15;72.05
75317;BME280;63913;51.492;10.368;2023-03-01T05:16:55;99602.59;;;-4.15;71.69
75317;BME280;63913;51.492;10.368;2023-03-01T05:19:20;99607.63;;;-4.15;71.91
75317;BME280;63913;51.492;10.368;2023-03-01T05:21:48;99611.91;;;-4.14;71.88
75317;BME280;63913;51.492;10.368;2023-03-01T05:24:34;99606.16;;;-4.22;72.29
75317;BME280;63913;51.492;10.368;2023-03-01T05:27:01;99599.63;;;-4.29;71.27
75317;BME280;63913;51.492;10.368;2023-03-01T05:29:27;99605.84;;;-4.25;71.92
75317;BME280;63913;51.492;10.368;2023-03-01T05:31:58;99604.06;;;-4.26;72.15
75317;BME280;63913;51.492;10.368;2023-03-01T05:34:25;99604.53;;;-4.21;72.22
75317;BME280;63913;51.492;10.368;2023-03-01T05:36:52;99598.31;;;-4.25;72.00
75317;BME280;63913;51.492;10.368;2023-03-01T05:39:23;99602.13;;;-4.29;72.28
75317;BME280;63913;51.492;10.368;2023-03-01T05:41:53;99601.72;;;-4.33;72.50
75317;BME280;63913;51.492;10.368;2023-03-01T05:44:19;99598.31;;;-4.34;72.87
75317;BME280;63913;51.492;10.368;2023-03-01T05:46:45;99604.53;;;-4.30;72.98
75317;BME280;63913;51.492;10.368;2023-03-01T05:49:11;99603.75;;;-4.29;72.00
75317;BME280;63913;51.492;10.368;2023-03-01T05:51:38;99607.94;;;-4.30;71.92
75317;BME280;63913;51.492;10.368;2023-03-01T05:54:04;99602.28;;;-4.36;71.69
75317;BME280;63913;51.492;10.368;2023-03-01T05:56:33;99612.47;;;-4.43;72.07
75317;BME280;63913;51.492;10.368;2023-03-01T05:58:59;99596.09;;;-4.48;73.03
75317;BME280;63913;51.492;10.368;2023-03-01T06:01:24;99601.13;;;-4.48;73.04
75317;BME280;63913;51.492;10.368;2023-03-01T06:03:50;99597.41;;;-4.43;72.93
75317;BME280;63913;51.492;10.368;2023-03-01T06:06:15;99595.47;;;-4.45;72.79
75317;BME280;63913;51.492;10.368;2023-03-01T06:08:40;99594.00;;;-4.43;72.85
75317;BME280;63913;51.492;10.368;2023-03-01T06:11:06;99596.97;;;-4.47;72.56
75317;BME280;63913;51.492;10.368;2023-03-01T06:13:32;99605.25;;;-4.48;72.91
75317;BME280;63913;51.492;10.368;2023-03-01T06:15:58;99605.66;;;-4.61;73.20
75317;BME280;63913;51.492;10.368;2023-03-01T06:18:23;99611.72;;;-4.59;73.16
75317;BME280;63913;51.492;10.368;2023-03-01T06:20:55;99600.06;;;-4.58;73.51
75317;BME280;63913;51.492;10.368;2023-03-01T06:23:23;99608.91;;;-4.53;73.20
75317;BME280;63913;51.492;10.368;2023-03-01T06:25:53;99609.53;;;-4.47;72.75
75317;BME280;63913;51.492;10.368;2023-03-01T06:28:20;99603.03;;;-4.54;73.18
75317;BME280;63913;51.492;10.368;2023-03-01T06:30:45;99613.06;;;-4.54;73.90
75317;BME280;63913;51.492;10.368;2023-03-01T06:33:11;99605.25;;;-4.48;73.66
75317;BME280;63913;51.492;10.368;2023-03-01T06:35:36;99592.97;;;-4.45;73.40
75317;BME280;63913;51.492;10.368;2023-03-01T06:38:03;99589.00;;;-4.43;73.26
75317;BME280;63913;51.492;10.368;2023-03-01T06:40:29;99592.97;;;-4.37;73.24
75317;BME280;63913;51.492;10.368;2023-03-01T06:42:56;99594.91;;;-4.34;73.04
75317;BME280;63913;51.492;10.368;2023-03-01T06:45:21;99595.81;;;-4.34;72.98
75317;BME280;63913;51.492;10.368;2023-03-01T06:47:47;99587.22;;;-4.36;72.81
75317;BME280;63913;51.492;10.368;2023-03-01T06:50:13;99592.09;;;-4.37;73.04
75317;BME280;63913;51.492;10.368;2023-03-01T06:52:39;99594.00;;;-4.43;73.68
75317;BME280;63913;51.492;10.368;2023-03-01T06:55:05;99595.47;;;-4.45;73.92
75317;BME280;63913;51.492;10.368;2023-03-01T06:57:31;99591.97;;;-4.39;73.65
75317;BME280;63913;51.492;10.368;2023-03-01T06:59:56;99600.25;;;-4.31;73.31
75317;BME280;63913;51.492;10.368;2023-03-01T07:02:22;99602.13;;;-4.29;73.76
75317;BME280;63913;51.492;10.368;2023-03-01T07:04:49;99602.13;;;-4.29;73.82
75317;BME280;63913;51.492;10.368;2023-03-01T07:07:15;99595.97;;;-4.24;73.71
75317;BME280;63913;51.492;10.368;2023-03-01T07:09:40;99599.06;;;-4.17;73.78
75317;BME280;63913;51.492;10.368;2023-03-01T07:12:06;99600.69;;;-4.18;73.86
75317;BME280;63913;51.492;10.368;2023-03-01T07:14:31;99595.22;;;-4.14;73.98
75317;BME280;63913;51.492;10.368;2023-03-01T07:16:57;99592.09;;;-4.11;73.86
75317;BME280;63913;51.492;10.368;2023-03-01T07:19:22;99585.63;;;-4.09;73.90
75317;BME280;63913;51.492;10.368;2023-03-01T07:21:48;99595.06;;;-4.07;73.98
75317;BME280;63913;51.492;10.368;2023-03-01T07:24:13;99586.94;;;-4.04;74.17
75317;BME280;63913;51.492;10.368;2023-03-01T07:26:39;99581.78;;;-3.97;74.12
75317;BME280;63913;51.492;10.368;2023-03-01T07:29:05;99591.06;;;-3.96;74.01
75317;BME280;63913;51.492;10.368;2023-03-01T07:31:32;99585.75;;;-3.91;73.92
75317;BME280;63913;51.492;10.368;2023-03-01T07:34:00;99580.44;;;-3.94;74.46
75317;BME280;63913;51.492;10.368;2023-03-01T07:36:29;99585.28;;;-3.87;74.56
75317;BME280;63913;51.492;10.368;2023-03-01T07:38:54;99577.59;;;-3.88;74.74
75317;BME280;63913;51.492;10.368;2023-03-01T07:41:21;99580.84;;;-3.80;74.39
75317;BME280;63913;51.492;10.368;2023-03-01T07:43:46;99577.31;;;-3.74;74.41
75317;BME280;63913;51.492;10.368;2023-03-01T07:46:12;99577.88;;;-3.68;74.56
75317;BME280;63913;51.492;10.368;2023-03-01T07:48:37;99569.28;;;-3.61;74.56
75317;BME280;63913;51.492;10.368;2023-03-01T07:51:04;99576.97;;;-3.51;74.54
75317;BME280;63913;51.492;10.368;2023-03-01T07:53:31;99578.72;;;-3.50;74.41
75317;BME280;63913;51.492;10.368;2023-03-01T07:56:13;99570.88;;;-3.44;74.64
75317;BME280;63913;51.492;10.368;2023-03-01T07:58:41;99573.78;;;-3.40;74.50
75317;BME280;63913;51.492;10.368;2023-03-01T08:01:10;99569.78;;;-3.29;74.52
75317;BME280;63913;51.492;10.368;2023-03-01T08:03:36;99567.69;;;-3.25;74.77
75317;BME280;63913;51.492;10.368;2023-03-01T08:06:03;99575.78;;;-3.10;74.29
75317;BME280;63913;51.492;10.368;2023-03-01T08:08:29;99561.03;;;-2.97;73.68
75317;BME280;63913;51.492;10.368;2023-03-01T08:10:59;99555.78;;;-2.81;73.25
75317;BME280;63913;51.492;10.368;2023-03-01T08:13:25;99557.16;;;-2.66;72.69
75317;BME280;63913;51.492;10.368;2023-03-01T08:15:50;99558.81;;;-2.48;72.11
75317;BME280;63913;51.492;10.368;2023-03-01T08:18:17;99557.50;;;-2.34;72.27
75317;BME280;63913;51.492;10.368;2023-03-01T08:20:43;99551.72;;;-2.14;71.29
75317;BME280;63913;51.492;10.368;2023-03-01T08:23:08;99544.09;;;-2.06;70.86
75317;BME280;63913;51.492;10.368;2023-03-01T08:25:34;99552.59;;;-1.95;70.92
75317;BME280;63913;51.492;10.368;2023-03-01T08:27:59;99553.53;;;-1.84;70.72
75317;BME280;63913;51.492;10.368;2023-03-01T08:30:25;99545.94;;;-1.66;70.05
75317;BME280;63913;51.492;10.368;2023-03-01T08:32:51;99550.72;;;-1.59;70.48
75317;BME280;63913;51.492;10.368;2023-03-01T08:35:16;99552.13;;;-1.52;70.22
75317;BME280;63913;51.492;10.368;2023-03-01T08:37:42;99552.03;;;-1.43;70.25
75317;BME280;63913;51.492;10.368;2023-03-01T08:40:08;99552.22;;;-1.32;69.77
75317;BME280;63913;51.492;10.368;2023-03-01T08:42:35;99537.59;;;-1.26;69.73
75317;BME280;63913;51.492;10.368;2023-03-01T08:45:01;99536.00;;;-1.15;69.36
75317;BME280;63913;51.492;10.368;2023-03-01T08:47:26;99540.66;;;-1.09;69.25
75317;BME280;63913;51.492;10.368;2023-03-01T08:49:52;99539.03;;;-0.99;69.09
75317;BME280;63913;51.492;10.368;2023-03-01T08:52:19;99530.19;;;-0.94;68.71
75317;BME280;63913;51.492;10.368;2023-03-01T08:54:45;99534.25;;;-0.86;68.70
75317;BME280;63913;51.492;10.368;2023-03-01T08:57:12;99535.13;;;-0.75;67.93
75317;BME280;63913;51.492;10.368;2023-03-01T08:59:37;99536.25;;;-0.71;68.07
75317;BME280;63913;51.492;10.368;2023-03-01T09:02:04;99533.88;;;-0.70;67.63
75317;BME280;63913;51.492;10.368;2023-03-01T09:04:31;99536.13;;;-0.63;67.68
75317;BME280;63913;51.492;10.368;2023-03-01T09:06:56;99528.81;;;-0.60;67.22
75317;BME280;63913;51.492;10.368;2023-03-01T09:09:21;99525.28;;;-0.52;67.22
75317;BME280;63913;51.492;10.368;2023-03-01T09:11:47;99529.03;;;-0.47;67.36
75317;BME280;63913;51.492;10.368;2023-03-01T09:14:15;99528.56;;;-0.43;67.01
75317;BME280;63913;51.492;10.368;2023-03-01T09:16:40;99523.09;;;-0.37;67.45
75317;BME280;63913;51.492;10.368;2023-03-01T09:19:05;99522.84;;;-0.30;66.80
75317;BME280;63913;51.492;10.368;2023-03-01T09:21:31;99520.56;;;-0.27;66.61
75317;BME280;63913;51.492;10.368;2023-03-01T09:23:57;99520.03;;;-0.23;66.69
75317;BME280;63913;51.492;10.368;2023-03-01T09:26:23;99528.13;;;-0.17;66.16
75317;BME280;63913;51.492;10.368;2023-03-01T09:28:51;99517.63;;;-0.11;66.12
75317;BME280;63913;51.492;10.368;2023-03-01T09:31:18;99521.38;;;-0.06;65.67
75317;BME280;63913;51.492;10.368;2023-03-01T09:33:46;99522.75;;;0.00;65.51
75317;BME280;63913;51.492;10.368;2023-03-01T09:36:14;99519.72;;;0.05;65.25
75317;BME280;63913;51.492;10.368;2023-03-01T09:38:40;99517.94;;;0.14;64.63
75317;BME280;63913;51.492;10.368;2023-03-01T09:41:43;99518.25;;;0.28;63.99
75317;BME280;63913;51.492;10.368;2023-03-01T09:46:50;99506.25;;;0.69;62.92
75317;BME280;63913;51.492;10.368;2023-03-01T09:49:22;99514.69;;;0.80;62.08
75317;BME280;63913;51.492;10.368;2023-03-01T09:55:11;99509.47;;;1.00;61.64
75317;BME280;63913;51.492;10.368;2023-03-01T09:58:11;99514.78;;;1.15;60.32
75317;BME280;63913;51.492;10.368;2023-03-01T10:00:47;99505.94;;;1.32;60.40
75317;BME280;63913;51.492;10.368;2023-03-01T10:03:20;99508.53;;;1.78;58.76
75317;BME280;63913;51.492;10.368;2023-03-01T10:06:02;99506.44;;;2.08;57.49
75317;BME280;63913;51.492;10.368;2023-03-01T10:08:34;99497.41;;;2.59;57.01
75317;BME280;63913;51.492;10.368;2023-03-01T10:11:05;99512.84;;;2.99;55.74
75317;BME280;63913;51.492;10.368;2023-03-01T10:13:59;99503.56;;;3.24;54.17
75317;BME280;63913;51.492;10.368;2023-03-01T10:19:12;99493.47;;;3.90;53.29
75317;BME280;63913;51.492;10.368;2023-03-01T10:21:43;99491.41;;;4.11;51.99
75317;BME280;63913;51.492;10.368;2023-03-01T10:24:17;99483.97;;;4.27;51.43
75317;BME280;63913;51.492;10.368;2023-03-01T10:26:56;99478.00;;;4.68;49.85
75317;BME280;63913;51.492;10.368;2023-03-01T10:29:39;99485.72;;;4.97;49.07
75317;BME280;63913;51.492;10.368;2023-03-01T10:32:09;99479.38;;;5.18;48.29
75317;BME280;63913;51.492;10.368;2023-03-01T10:34:36;99467.41;;;5.47;47.51
75317;BME280;63913;51.492;10.368;2023-03-01T10:37:21;99467.34;;;5.74;47.72
75317;BME280;63913;51.492;10.368;2023-03-01T10:40:15;99456.03;;;6.00;45.39
75317;BME280;63913;51.492;10.368;2023-03-01T10:42:47;99469.81;;;6.19;44.57
75317;BME280;63913;51.492;10.368;2023-03-01T10:48:13;99464.09;;;6.70;44.18
75317;BME280;63913;51.492;10.368;2023-03-01T10:50:47;99462.09;;;6.64;45.07
75317;BME280;63913;51.492;10.368;2023-03-01T10:53:37;99455.38;;;6.66;43.69
75317;BME280;63913;51.492;10.368;2023-03-01T10:56:07;99449.56;;;6.69;43.40
75317;BME280;63913;51.492;10.368;2023-03-01T10:58:37;99464.38;;;6.12;43.73
75317;BME280;63913;51.492;10.368;2023-03-01T11:01:06;99464.28;;;6.42;44.73
75317;BME280;63913;51.492;10.368;2023-03-01T11:06:32;99456.06;;;5.71;44.12
75317;BME280;63913;51.492;10.368;2023-03-01T11:09:22;99442.81;;;6.38;45.49
75317;BME280;63913;51.492;10.368;2023-03-01T11:11:53;99446.81;;;6.98;44.91
75317;BME280;63913;51.492;10.368;2023-03-01T11:14:24;99437.66;;;7.02;42.89
75317;BME280;63913;51.492;10.368;2023-03-01T11:17:14;99436.84;;;7.03;43.02
75317;BME280;63913;51.492;10.368;2023-03-01T11:19:40;99439.97;;;6.97;42.55
75317;BME280;63913;51.492;10.368;2023-03-01T11:22:19;99434.03;;;6.82;42.69
75317;BME280;63913;51.492;10.368;2023-03-01T11:24:54;99436.97;;;7.06;42.88
75317;BME280;63913;51.492;10.368;2023-03-01T11:27:25;99427.00;;;7.10;41.67
75317;BME280;63913;51.492;10.368;2023-03-01T11:35:46;99430.47;;;6.46;43.60
75317;BME280;63913;51.492;10.368;2023-03-01T11:38:22;99435.72;;;6.65;43.64
75317;BME280;63913;51.492;10.368;2023-03-01T11:40:55;99430.22;;;6.90;43.71
75317;BME280;63913;51.492;10.368;2023-03-01T11:43:33;99422.09;;;7.15;42.78
75317;BME280;63913;51.492;10.368;2023-03-01T11:46:32;99416.31;;;7.35;42.56
75317;BME280;63913;51.492;10.368;2023-03-01T11:49:44;99411.34;;;7.38;42.65
75317;BME280;63913;51.492;10.368;2023-03-01T11:52:34;99408.09;;;6.90;42.22
75317;BME280;63913;51.492;10.368;2023-03-01T11:55:16;99414.97;;;6.92;41.95
75317;BME280;63913;51.492;10.368;2023-03-01T12:03:32;99405.84;;;7.13;42.04
75317;BME280;63913;51.492;10.368;2023-03-01T12:11:53;99403.53;;;7.01;42.04
75317;BME280;63913;51.492;10.368;2023-03-01T12:14:50;99402.91;;;7.05;42.57
75317;BME280;63913;51.492;10.368;2023-03-01T12:20:21;99402.03;;;6.88;42.62
75317;BME280;63913;51.492;10.368;2023-03-01T12:25:45;99389.88;;;7.01;42.29
75317;BME280;63913;51.492;10.368;2023-03-01T12:30:58;99377.56;;;6.94;43.05
75317;BME280;63913;51.492;10.368;2023-03-01T12:38:59;99381.59;;;6.88;41.81
75317;BME280;63913;51.492;10.368;2023-03-01T12:55:01;99363.66;;;7.05;41.81
75317;BME280;63913;51.492;10.368;2023-03-01T12:57:33;99356.28;;;7.11;41.62
75317;BME280;63913;51.492;10.368;2023-03-01T13:00:17;99345.25;;;7.12;41.92
75317;BME280;63913;51.492;10.368;2023-03-01T13:05:54;99350.81;;;7.39;40.73
75317;BME280;63913;51.492;10.368;2023-03-01T13:08:52;99352.03;;;7.45;40.87
75317;BME280;63913;51.492;10.368;2023-03-01T13:11:20;99345.94;;;7.43;40.44
75317;BME280;63913;51.492;10.368;2023-03-01T13:13:46;99336.34;;;7.39;41.79
75317;BME280;63913;51.492;10.368;2023-03-01T13:19:27;99338.28;;;7.61;40.59
75317;BME280;63913;51.492;10.368;2023-03-01T13:21:55;99324.00;;;7.66;40.35
75317;BME280;63913;51.492;10.368;2023-03-01T13:24:29;99320.47;;;7.64;40.82
75317;BME280;63913;51.492;10.368;2023-03-01T13:32:25;99323.28;;;7.51;39.14
75317;BME280;63913;51.492;10.368;2023-03-01T13:35:40;99308.38;;;7.42;38.78
75317;BME280;63913;51.492;10.368;2023-03-01T13:37:48;99316.84;;;7.41;38.93
75317;BME280;63913;51.492;10.368;2023-03-01T13:42:45;99306.88;;;7.65;38.50
75317;BME280;63913;51.492;10.368;2023-03-01T13:45:21;99307.50;;;7.59;38.46
75317;BME280;63913;51.492;10.368;2023-03-01T13:47:52;99290.97;;;7.35;37.91
75317;BME280;63913;51.492;10.368;2023-03-01T13:50:22;99291.03;;;7.54;38.09
75317;BME280;63913;51.492;10.368;2023-03-01T13:53:04;99290.00;;;7.69;38.81
75317;BME280;63913;51.492;10.368;2023-03-01T13:55:47;99283.75;;;7.81;39.24
75317;BME280;63913;51.492;10.368;2023-03-01T13:58:24;99299.25;;;7.84;38.44
75317;BME280;63913;51.492;10.368;2023-03-01T14:01:04;99284.78;;;7.85;36.95
75317;BME280;63913;51.492;10.368;2023-03-01T14:03:31;99289.75;;;7.82;36.81
75317;BME280;63913;51.492;10.368;2023-03-01T14:06:02;99277.03;;;7.83;36.59
75317;BME280;63913;51.492;10.368;2023-03-01T14:08:29;99282.94;;;7.82;37.11
75317;BME280;63913;51.492;10.368;2023-03-01T14:16:52;99276.44;;;7.71;36.65
75317;BME280;63913;51.492;10.368;2023-03-01T14:19:25;99271.53;;;7.93;36.24
75317;BME280;63913;51.492;10.368;2023-03-01T14:22:14;99271.31;;;8.08;35.91
75317;BME280;63913;51.492;10.368;2023-03-01T14:24:50;99275.75;;;8.12;35.54
75317;BME280;63913;51.492;10.368;2023-03-01T14:27:17;99272.56;;;7.79;36.36
75317;BME280;63913;51.492;10.368;2023-03-01T14:29:43;99270.03;;;7.98;37.02
75317;BME280;63913;51.492;10.368;2023-03-01T14:32:20;99262.91;;;8.11;37.41